Time;durP1;ratioP1;P1;durP2;ratioP2;P2;SDS_P1;SDS_P2;PMS_P1;PMS_P2;Temp;Humidity;BMP_temperature;BMP_pressure;BME280_temperature;BME280_humidity;BME280_pressure;Samples;Min_cycle;Max_cycle;Signal;HPM_P1;HPM_P2
2022/06/21 00:01:16;;;;;;;6.18;2.67;;;14.50;97.70;;;;;;4950215;29;20039;-34
2022/06/21 00:03:42;;;;;;;8.07;3.25;;;14.50;97.80;;;;;;4939146;29;20435;-33
2022/06/21 00:06:12;;;;;;;7.13;2.60;;;14.50;97.80;;;;;;4950134;28;20019;-35
2022/06/21 00:08:38;;;;;;;3.90;2.30;;;14.50;98.00;;;;;;4950739;28;20051;-36
2022/06/21 00:11:18;;;;;;;5.18;2.78;;;14.50;98.00;;;;;;4949789;29;20027;-41
2022/06/21 00:13:44;;;;;;;5.55;2.25;;;14.50;98.10;;;;;;4947630;29;20046;-35
2022/06/21 00:16:12;;;;;;;6.93;2.40;;;14.40;98.20;;;;;;4950164;28;20479;-35
2022/06/21 00:18:40;;;;;;;7.32;3.03;;;14.40;98.20;;;;;;4949167;28;20086;-34
2022/06/21 00:21:16;;;;;;;4.82;2.40;;;14.40;98.30;;;;;;4950357;28;20466;-35
2022/06/21 00:23:42;;;;;;;5.65;2.50;;;14.40;98.40;;;;;;4949433;29;20029;-36
2022/06/21 00:26:12;;;;;;;7.43;3.15;;;14.40;98.40;;;;;;4951156;29;20031;-34
2022/06/21 00:28:38;;;;;;;4.65;2.65;;;14.40;98.50;;;;;;4950149;28;20039;-36
2022/06/21 00:31:14;;;;;;;4.95;2.50;;;14.30;98.50;;;;;;4949746;28;20027;-35
2022/06/21 00:33:39;;;;;;;6.75;2.50;;;14.30;98.60;;;;;;4948951;28;20135;-36
2022/06/21 00:36:21;;;;;;;4.78;2.47;;;14.30;98.60;;;;;;4950283;29;20166;-35
2022/06/21 00:38:47;;;;;;;4.18;2.28;;;14.30;98.60;;;;;;4948764;28;20039;-35
2022/06/21 00:41:16;;;;;;;5.78;2.42;;;14.30;98.60;;;;;;4949764;29;20031;-34
2022/06/21 00:43:46;;;;;;;6.43;2.80;;;14.20;98.60;;;;;;4949511;28;20035;-35
2022/06/21 00:46:33;;;;;;;4.75;2.40;;;14.20;98.60;;;;;;4949083;28;20347;-35
2022/06/21 00:49:02;;;;;;;7.40;2.30;;;14.20;98.70;;;;;;4949218;28;20126;-35
2022/06/21 00:51:35;;;;;;;5.22;2.28;;;14.20;98.70;;;;;;4948620;29;20031;-35
2022/06/21 00:54:10;;;;;;;3.95;2.35;;;14.20;98.80;;;;;;4949498;28;20070;-35
2022/06/21 00:56:45;;;;;;;4.15;2.22;;;14.20;98.90;;;;;;4947950;28;20079;-34
2022/06/21 00:59:26;;;;;;;6.00;2.60;;;14.10;98.90;;;;;;4947888;28;20024;-36
2022/06/21 01:01:59;;;;;;;4.72;2.08;;;14.10;99.00;;;;;;4947841;29;20422;-36
2022/06/21 01:04:34;;;;;;;5.65;2.50;;;14.10;99.10;;;;;;4947399;28;20031;-35
2022/06/21 01:07:03;;;;;;;10.35;2.40;;;14.00;99.10;;;;;;4947583;28;20039;-35
2022/06/21 01:09:38;;;;;;;5.18;2.95;;;14.00;99.20;;;;;;4948080;28;20026;-35
2022/06/21 01:12:04;;;;;;;8.02;2.28;;;14.00;99.30;;;;;;4948945;28;20074;-34
2022/06/21 01:14:32;;;;;;;3.78;2.20;;;14.00;99.40;;;;;;4947084;28;20033;-34
2022/06/21 01:16:58;;;;;;;7.57;2.38;;;13.90;99.40;;;;;;4949508;28;20110;-34
2022/06/21 01:19:42;;;;;;;3.30;2.25;;;14.00;99.40;;;;;;4948687;28;20522;-34
2022/06/21 01:22:44;;;;;;;4.97;1.88;;;13.90;99.50;;;;;;4948909;29;20380;-35
2022/06/21 01:25:22;;;;;;;5.38;2.38;;;13.90;99.60;;;;;;4948958;29;20641;-35
2022/06/21 01:27:48;;;;;;;6.25;2.28;;;13.90;99.50;;;;;;4947306;29;20038;-35
2022/06/21 01:30:14;;;;;;;3.67;2.30;;;13.90;99.50;;;;;;4948230;28;20110;-37
2022/06/21 01:32:39;;;;;;;4.45;2.10;;;13.80;99.50;;;;;;4948964;29;20062;-35
2022/06/21 01:35:17;;;;;;;4.97;2.08;;;13.80;99.60;;;;;;4947956;28;20694;-35
2022/06/21 01:37:43;;;;;;;4.40;2.33;;;13.80;99.70;;;;;;4948130;29;20074;-34
2022/06/21 01:40:16;;;;;;;4.13;1.92;;;13.70;99.70;;;;;;4948261;28;20066;-33
2022/06/21 01:42:53;;;;;;;3.60;1.90;;;13.70;99.70;;;;;;4947263;29;20027;-34
2022/06/21 01:45:24;;;;;;;4.53;2.10;;;13.60;99.80;;;;;;4948230;28;20479;-34
2022/06/21 01:47:58;;;;;;;4.78;2.10;;;13.60;99.90;;;;;;4948308;28;20027;-34
2022/06/21 01:50:24;;;;;;;4.28;1.88;;;13.50;99.90;;;;;;4948130;28;20030;-35
2022/06/21 01:52:54;;;;;;;3.35;2.00;;;13.50;99.90;;;;;;4948483;29;20077;-35
2022/06/21 01:55:29;;;;;;;5.80;2.08;;;13.50;99.90;;;;;;4947399;28;20062;-35
2022/06/21 01:58:00;;;;;;;4.38;2.17;;;13.50;99.90;;;;;;4948701;29;20110;-34
2022/06/21 02:00:27;;;;;;;4.43;2.00;;;13.50;99.90;;;;;;4947543;28;20035;-35
2022/06/21 02:03:01;;;;;;;3.97;1.80;;;13.50;99.90;;;;;;4947341;28;20035;-35
2022/06/21 02:05:40;;;;;;;6.55;2.42;;;13.50;99.90;;;;;;4947985;28;20015;-34
2022/06/21 02:08:10;;;;;;;5.68;2.00;;;13.40;99.90;;;;;;4947309;28;20487;-39
2022/06/21 02:10:41;;;;;;;4.30;2.00;;;13.40;99.90;;;;;;4945530;28;20079;-35
2022/06/21 02:13:13;;;;;;;5.63;2.53;;;13.40;99.90;;;;;;4947158;29;20442;-35
2022/06/21 02:15:58;;;;;;;4.18;1.77;;;13.40;99.90;;;;;;4946864;28;20055;-35
2022/06/21 02:18:25;;;;;;;4.18;2.20;;;13.40;99.90;;;;;;4938686;29;20031;-35
2022/06/21 02:21:08;;;;;;;2.85;1.67;;;13.30;99.90;;;;;;4948367;28;20042;-35
2022/06/21 02:23:34;;;;;;;3.80;1.90;;;13.30;99.90;;;;;;4937586;29;20031;-36
2022/06/21 02:26:00;;;;;;;3.85;1.83;;;13.30;99.90;;;;;;4947385;29;20499;-34
2022/06/21 02:28:28;;;;;;;3.83;1.95;;;13.30;99.90;;;;;;4947476;28;20046;-35
2022/06/21 02:30:55;;;;;;;4.75;2.00;;;13.30;99.90;;;;;;4947079;28;20373;-34
2022/06/21 02:33:25;;;;;;;4.88;1.98;;;13.30;99.90;;;;;;4947880;28;20114;-36
2022/06/21 02:36:01;;;;;;;3.50;1.70;;;13.30;99.90;;;;;;4947302;28;20043;-34
2022/06/21 02:38:37;;;;;;;3.53;1.50;;;13.20;99.90;;;;;;4943790;29;20541;-35
2022/06/21 02:41:13;;;;;;;3.30;1.70;;;13.20;99.90;;;;;;4947822;29;20074;-36
2022/06/21 02:43:45;;;;;;;4.93;1.83;;;13.10;99.90;;;;;;4944378;29;20042;-35
2022/06/21 02:46:23;;;;;;;3.63;1.67;;;13.10;99.90;;;;;;4947229;28;20027;-36
2022/06/21 02:49:13;;;;;;;4.65;1.63;;;13.10;99.90;;;;;;4947429;28;20403;-35
2022/06/21 02:51:51;;;;;;;5.05;1.65;;;13.10;99.90;;;;;;4942355;29;20054;-36
2022/06/21 02:54:27;;;;;;;6.00;2.10;;;13.10;99.90;;;;;;4947347;29;20118;-35
2022/06/21 02:57:01;;;;;;;5.65;1.85;;;13.00;99.90;;;;;;4947561;29;20165;-34
2022/06/21 02:59:28;;;;;;;3.75;1.40;;;13.10;99.90;;;;;;4946262;29;20019;-34
2022/06/21 03:01:58;;;;;;;3.47;1.70;;;13.00;99.90;;;;;;4947267;28;20178;-35
2022/06/21 03:04:35;;;;;;;6.22;2.10;;;13.00;99.90;;;;;;4947424;28;20039;-34
2022/06/21 03:07:01;;;;;;;6.03;2.00;;;12.90;99.90;;;;;;4947380;28;20039;-35
2022/06/21 03:09:27;;;;;;;4.10;2.00;;;12.90;99.90;;;;;;4947037;28;20034;-36
2022/06/21 03:11:59;;;;;;;2.85;1.75;;;12.90;99.90;;;;;;4947319;28;20031;-35
2022/06/21 03:14:27;;;;;;;2.90;1.70;;;12.90;99.90;;;;;;4946275;29;20455;-35
2022/06/21 03:16:54;;;;;;;3.28;1.70;;;12.90;99.90;;;;;;4947117;28;20090;-35
2022/06/21 03:19:29;;;;;;;4.85;1.73;;;12.80;99.90;;;;;;4946378;28;20458;-35
2022/06/21 03:21:55;;;;;;;4.43;1.90;;;12.80;99.90;;;;;;4950269;28;20486;-35
2022/06/21 03:24:23;;;;;;;4.75;2.00;;;12.80;99.90;;;;;;4949567;28;20545;-35
2022/06/21 03:27:13;;;;;;;3.10;2.10;;;12.80;99.90;;;;;;4949559;28;20079;-35
2022/06/21 03:29:39;;;;;;;6.03;2.13;;;12.90;99.90;;;;;;4950350;28;20547;-34
2022/06/21 03:32:05;;;;;;;2.95;1.80;;;12.80;99.90;;;;;;4950791;29;20114;-34
2022/06/21 03:34:32;;;;;;;5.40;2.38;;;12.80;99.90;;;;;;4949326;29;20043;-35
2022/06/21 03:36:59;;;;;;;4.15;2.08;;;12.90;99.90;;;;;;4950921;28;20050;-35
2022/06/21 03:42:14;;;;;;;4.18;1.98;;;12.90;99.90;;;;;;4950700;29;20042;-35
2022/06/21 03:45:16;;;;;;;4.55;1.88;;;12.90;99.90;;;;;;4949562;28;20035;-35
2022/06/21 03:48:15;;;;;;;4.60;2.00;;;12.90;99.90;;;;;;4928625;29;20050;-35
2022/06/21 03:50:53;;;;;;;4.95;1.95;;;12.90;99.90;;;;;;4933000;29;20035;-34
2022/06/21 03:53:41;;;;;;;3.35;1.65;;;12.90;99.90;;;;;;4951177;28;20038;-36
2022/06/21 03:56:21;;;;;;;3.72;1.73;;;12.90;99.90;;;;;;4946935;29;20055;-34
2022/06/21 03:59:04;;;;;;;3.30;1.60;;;12.90;99.90;;;;;;4950275;28;20086;-35
2022/06/21 04:01:54;;;;;;;2.22;1.50;;;12.90;99.90;;;;;;4948489;28;20110;-35
2022/06/21 04:04:31;;;;;;;3.63;1.60;;;13.00;99.90;;;;;;4949484;28;20502;-34
2022/06/21 04:07:04;;;;;;;3.95;1.88;;;13.00;99.90;;;;;;4950998;28;20039;-35
2022/06/21 04:09:59;;;;;;;3.75;1.70;;;12.90;99.90;;;;;;4948882;28;20035;-35
2022/06/21 04:12:32;;;;;;;3.33;1.50;;;12.90;99.90;;;;;;4943129;29;20146;-35
2022/06/21 04:15:22;;;;;;;3.72;1.92;;;12.90;99.90;;;;;;4950117;28;20060;-34
2022/06/21 04:17:59;;;;;;;4.55;2.20;;;13.00;99.90;;;;;;4950007;29;20037;-35
2022/06/21 04:20:27;;;;;;;4.18;1.60;;;13.00;99.90;;;;;;4949719;28;20522;-34
2022/06/21 04:23:03;;;;;;;3.50;1.98;;;13.00;99.90;;;;;;4949391;29;20043;-36
2022/06/21 04:25:40;;;;;;;3.88;1.85;;;12.90;99.90;;;;;;4948695;28;20023;-36
2022/06/21 04:28:16;;;;;;;5.13;2.00;;;13.00;99.90;;;;;;4949713;29;20027;-36
2022/06/21 04:31:12;;;;;;;3.45;1.90;;;13.00;99.90;;;;;;4946715;28;20042;-36
2022/06/21 04:33:56;;;;;;;5.32;1.65;;;13.00;99.90;;;;;;4947119;29;20432;-37
2022/06/21 04:36:32;;;;;;;5.45;2.03;;;13.00;99.90;;;;;;4949114;29;20039;-34
2022/06/21 04:39:06;;;;;;;4.20;1.80;;;12.90;99.90;;;;;;4950325;28;20107;-33
2022/06/21 04:41:43;;;;;;;4.80;1.63;;;12.90;99.90;;;;;;4948461;28;20031;-35
2022/06/21 04:44:15;;;;;;;3.78;1.70;;;13.00;99.90;;;;;;4949104;28;20113;-36
2022/06/21 04:47:00;;;;;;;2.78;1.38;;;13.00;99.90;;;;;;4949644;28;20451;-36
2022/06/21 04:49:32;;;;;;;3.13;1.80;;;13.00;99.90;;;;;;4948689;28;20027;-36
2022/06/21 04:52:08;;;;;;;3.97;1.70;;;13.00;99.90;;;;;;4948603;29;20035;-35
2022/06/21 04:54:36;;;;;;;3.13;1.40;;;13.00;99.90;;;;;;4948073;28;20551;-36
2022/06/21 04:57:09;;;;;;;3.10;1.80;;;13.10;99.90;;;;;;4949165;29;20410;-35
2022/06/21 04:59:51;;;;;;;3.53;1.90;;;13.10;99.90;;;;;;4948144;28;20273;-36
2022/06/21 05:02:30;;;;;;;2.78;2.00;;;13.10;99.90;;;;;;4948455;28;20034;-35
2022/06/21 05:05:07;;;;;;;5.25;1.80;;;13.20;99.90;;;;;;4948117;28;20395;-34
2022/06/21 05:07:40;;;;;;;3.40;1.85;;;13.20;99.90;;;;;;4948662;28;20038;-35
2022/06/21 05:10:06;;;;;;;3.15;1.73;;;13.20;99.90;;;;;;4948648;28;20093;-35
2022/06/21 05:12:36;;;;;;;3.58;1.67;;;13.30;99.90;;;;;;4947531;29;20354;-35
2022/06/21 05:15:06;;;;;;;4.30;1.73;;;13.30;99.90;;;;;;4949719;28;20043;-36
2022/06/21 05:17:34;;;;;;;5.47;1.70;;;13.40;99.90;;;;;;4948222;29;20035;-33
2022/06/21 05:20:05;;;;;;;3.60;1.80;;;13.40;99.90;;;;;;4948503;28;20035;-36
2022/06/21 05:22:37;;;;;;;5.50;1.70;;;13.40;99.90;;;;;;4948486;29;20019;-35
2022/06/21 05:25:13;;;;;;;2.75;1.17;;;13.50;99.90;;;;;;4948757;28;20501;-35
2022/06/21 05:27:45;;;;;;;2.40;1.45;;;13.50;99.90;;;;;;4947858;28;20027;-35
2022/06/21 05:30:26;;;;;;;2.70;1.25;;;13.60;99.90;;;;;;4948489;29;20081;-35
2022/06/21 05:32:55;;;;;;;1.00;0.82;;;13.60;99.90;;;;;;4947632;28;20435;-34
2022/06/21 05:35:27;;;;;;;2.83;1.02;;;13.60;99.90;;;;;;4947127;29;20035;-36
2022/06/21 05:38:01;;;;;;;3.63;1.10;;;13.70;99.90;;;;;;4947794;28;20030;-35
2022/06/21 05:40:59;;;;;;;5.63;1.00;;;13.70;99.90;;;;;;4945678;28;20187;-35
2022/06/21 05:43:32;;;;;;;3.55;0.98;;;13.80;99.90;;;;;;4944464;28;20042;-34
2022/06/21 05:46:05;;;;;;;3.38;1.27;;;13.80;99.90;;;;;;4947793;28;20035;-36
2022/06/21 05:48:34;;;;;;;2.20;0.90;;;13.90;99.90;;;;;;4944883;29;20031;-35
2022/06/21 05:51:02;;;;;;;3.65;1.10;;;13.90;99.90;;;;;;4947275;28;20057;-35
2022/06/21 05:53:33;;;;;;;3.28;1.20;;;13.90;99.90;;;;;;4946744;28;20027;-35
2022/06/21 05:56:05;;;;;;;2.42;1.05;;;14.00;99.90;;;;;;4946845;28;20035;-35
2022/06/21 05:58:36;;;;;;;2.93;1.30;;;14.00;99.90;;;;;;4945992;29;20051;-36
2022/06/21 06:01:14;;;;;;;1.55;0.80;;;14.10;99.90;;;;;;4946887;28;20118;-35
2022/06/21 06:04:03;;;;;;;2.30;1.10;;;14.20;99.90;;;;;;4946665;29;20019;-35
2022/06/21 06:06:34;;;;;;;2.72;1.00;;;14.20;99.90;;;;;;4946447;28;20031;-35
2022/06/21 06:09:19;;;;;;;2.30;0.85;;;14.20;99.90;;;;;;4946620;28;20030;-35
2022/06/21 06:12:02;;;;;;;4.22;1.10;;;14.30;99.90;;;;;;4947606;28;20034;-36
2022/06/21 06:14:52;;;;;;;2.63;0.80;;;14.40;99.90;;;;;;4947101;28;20054;-35
2022/06/21 06:17:47;;;;;;;1.50;1.00;;;14.40;99.90;;;;;;4946200;28;20054;-36
2022/06/21 06:20:25;;;;;;;2.85;1.02;;;14.50;99.90;;;;;;4946918;29;20431;-35
2022/06/21 06:23:07;;;;;;;3.58;1.23;;;14.60;99.90;;;;;;4927167;29;20028;-35
2022/06/21 06:25:56;;;;;;;2.78;1.20;;;14.60;99.90;;;;;;4944384;29;20035;-35
2022/06/21 06:28:46;;;;;;;2.13;1.00;;;14.60;99.90;;;;;;4946497;29;20047;-34
2022/06/21 06:31:33;;;;;;;2.38;0.98;;;14.70;99.90;;;;;;4946223;29;20041;-35
2022/06/21 06:34:06;;;;;;;4.95;1.17;;;14.70;99.90;;;;;;4946428;28;20035;-35
2022/06/21 06:36:44;;;;;;;2.97;1.50;;;14.80;99.90;;;;;;4945825;28;20217;-36
2022/06/21 06:39:34;;;;;;;4.00;1.42;;;14.90;99.90;;;;;;4947405;28;20027;-34
2022/06/21 06:42:19;;;;;;;1.85;0.90;;;15.00;99.90;;;;;;4947697;28;20432;-36
2022/06/21 06:44:47;;;;;;;1.75;1.05;;;15.00;99.90;;;;;;4948614;28;20926;-36
2022/06/21 06:47:25;;;;;;;2.75;1.05;;;15.10;99.90;;;;;;4946625;28;20030;-35
2022/06/21 06:50:09;;;;;;;2.30;0.95;;;15.10;99.90;;;;;;4946450;28;20023;-35
2022/06/21 06:53:01;;;;;;;2.92;1.10;;;15.20;99.90;;;;;;4937985;29;20027;-36
2022/06/21 06:55:53;;;;;;;2.25;1.10;;;15.30;99.90;;;;;;4951526;28;20043;-37
2022/06/21 07:00:06;;;;;;;4.30;0.95;;;15.40;99.90;;;;;;5081745;28;20334;-35
2022/06/21 07:02:53;;;;;;;3.08;1.10;;;15.50;99.90;;;;;;5062735;28;20451;-35
2022/06/21 07:05:31;;;;;;;3.35;1.30;;;15.50;99.90;;;;;;5060809;28;20021;-35
2022/06/21 07:08:20;;;;;;;3.10;1.23;;;15.60;99.90;;;;;;5052141;28;20499;-36
2022/06/21 07:10:48;;;;;;;2.53;1.10;;;15.60;99.90;;;;;;5048543;28;20507;-36
2022/06/21 07:13:15;;;;;;;2.80;1.15;;;15.60;99.90;;;;;;5061626;28;20021;-35
2022/06/21 07:15:44;;;;;;;4.18;1.30;;;15.70;99.90;;;;;;5061981;28;20385;-35
2022/06/21 07:18:29;;;;;;;4.18;1.60;;;15.70;99.90;;;;;;5061850;28;20388;-36
2022/06/21 07:20:56;;;;;;;1.52;1.20;;;15.80;99.90;;;;;;5062593;28;20124;-36
2022/06/21 07:23:24;;;;;;;3.72;1.80;;;15.80;99.90;;;;;;5062291;28;20592;-36
2022/06/21 07:25:52;;;;;;;2.47;1.90;;;15.90;99.90;;;;;;5061500;28;20080;-36
2022/06/21 07:28:24;;;;;;;4.75;2.33;;;15.90;99.90;;;;;;5062185;28;20043;-36
2022/06/21 07:30:52;;;;;;;4.43;2.47;;;15.90;99.90;;;;;;5062311;28;20033;-36
2022/06/21 07:33:28;;;;;;;4.75;2.70;;;16.00;99.90;;;;;;5052145;28;20087;-35
2022/06/21 07:35:59;;;;;;;7.95;3.88;;;16.00;99.90;;;;;;5043661;28;20033;-36
2022/06/21 07:38:31;;;;;;;7.80;4.30;;;16.00;99.90;;;;;;5061908;28;20384;-35
2022/06/21 07:41:02;;;;;;;6.82;4.38;;;16.00;99.90;;;;;;5062016;28;20178;-37
2022/06/21 07:43:39;;;;;;;6.35;3.00;;;16.10;99.90;;;;;;5060783;28;20027;-37
2022/06/21 07:46:07;;;;;;;6.22;3.05;;;16.10;99.90;;;;;;5062153;28;20020;-37
2022/06/21 07:48:47;;;;;;;3.10;1.80;;;16.10;99.90;;;;;;5060616;28;20155;-37
2022/06/21 07:51:30;;;;;;;3.67;1.77;;;16.20;99.90;;;;;;5062135;28;20052;-37
2022/06/21 07:54:20;;;;;;;4.70;1.60;;;16.20;99.90;;;;;;5060845;28;20024;-37
2022/06/21 07:56:57;;;;;;;2.35;1.50;;;16.30;99.90;;;;;;5060368;28;20066;-36
2022/06/21 07:59:48;;;;;;;2.05;1.23;;;16.30;99.90;;;;;;5075967;28;20139;-38
2022/06/21 08:08:09;;;;;;;2.15;1.23;;;16.60;99.90;;;;;;5081112;28;20046;-35
2022/06/21 08:10:53;;;;;;;4.03;1.38;;;16.60;99.80;;;;;;5072568;28;20024;-35
2022/06/21 08:13:19;;;;;;;2.97;1.30;;;16.60;99.60;;;;;;5068484;28;20074;-36
2022/06/21 08:16:04;;;;;;;2.67;1.42;;;16.70;99.50;;;;;;5067146;28;20431;-36
2022/06/21 08:18:44;;;;;;;3.55;1.50;;;16.70;99.40;;;;;;5067295;28;20020;-37
2022/06/21 08:21:23;;;;;;;2.50;1.23;;;16.70;99.20;;;;;;5067437;28;20068;-36
2022/06/21 08:24:25;;;;;;;2.63;1.15;;;16.70;99.30;;;;;;5066148;28;20025;-36
2022/06/21 08:27:23;;;;;;;3.13;1.15;;;16.70;99.30;;;;;;5054766;28;20032;-36
2022/06/21 08:29:59;;;;;;;2.78;0.88;;;16.70;99.20;;;;;;5067880;28;20081;-35
2022/06/21 08:32:41;;;;;;;2.97;1.40;;;16.80;99.10;;;;;;5067184;28;20489;-37
2022/06/21 08:35:32;;;;;;;1.67;1.10;;;16.80;99.00;;;;;;5067613;28;20059;-36
2022/06/21 08:38:05;;;;;;;1.75;1.13;;;16.90;98.90;;;;;;5065248;28;20066;-36
2022/06/21 08:40:59;;;;;;;1.17;0.82;;;16.90;98.70;;;;;;5064220;28;20040;-36
2022/06/21 08:44:08;;;;;;;1.20;1.00;;;17.00;98.50;;;;;;5066726;28;20020;-37
2022/06/21 08:47:11;;;;;;;2.15;1.00;;;17.00;98.40;;;;;;5069695;28;20040;-37
2022/06/21 08:49:55;;;;;;;2.47;0.80;;;17.00;98.30;;;;;;5066776;28;20091;-36
2022/06/21 08:52:45;;;;;;;0.95;0.82;;;17.00;98.30;;;;;;5068017;28;20067;-36
2022/06/21 08:55:37;;;;;;;1.95;0.95;;;17.00;98.20;;;;;;5066882;28;20027;-37
2022/06/21 08:58:36;;;;;;;3.40;1.75;;;17.00;98.10;;;;;;5061931;28;20458;-35
2022/06/21 09:01:21;;;;;;;1.38;0.70;;;17.10;98.00;;;;;;5066286;28;20443;-36
2022/06/21 09:04:07;;;;;;;2.45;0.70;;;17.20;97.90;;;;;;5065514;28;20070;-37
2022/06/21 09:06:59;;;;;;;1.13;0.80;;;17.30;97.70;;;;;;5066172;28;20036;-37
2022/06/21 09:09:36;;;;;;;1.95;0.80;;;17.30;97.50;;;;;;5065858;28;20059;-36
2022/06/21 09:12:33;;;;;;;2.92;0.82;;;17.40;97.50;;;;;;5055605;28;20430;-36
2022/06/21 09:15:04;;;;;;;1.17;0.70;;;17.30;97.30;;;;;;5067142;28;20028;-36
2022/06/21 09:17:42;;;;;;;1.15;0.70;;;17.30;97.30;;;;;;5067058;28;20024;-37
2022/06/21 09:20:21;;;;;;;1.55;0.70;;;17.30;97.30;;;;;;5067507;28;20028;-35
2022/06/21 09:22:53;;;;;;;1.42;0.65;;;17.40;97.20;;;;;;5065705;28;20056;-36
2022/06/21 09:25:30;;;;;;;1.15;0.60;;;17.50;97.10;;;;;;5065948;28;20024;-35
2022/06/21 09:28:10;;;;;;;1.55;0.60;;;17.60;96.90;;;;;;5046460;28;20510;-36
2022/06/21 09:30:59;;;;;;;0.93;0.60;;;17.70;96.70;;;;;;5056842;28;20024;-36
2022/06/21 09:33:49;;;;;;;0.93;0.50;;;17.80;96.40;;;;;;5065522;28;20035;-36
2022/06/21 09:36:28;;;;;;;0.88;0.55;;;17.80;96.10;;;;;;5066408;28;20062;-36
2022/06/21 09:38:59;;;;;;;2.15;0.60;;;17.90;96.00;;;;;;5065610;28;20116;-37
2022/06/21 09:41:47;;;;;;;0.83;0.40;;;18.00;95.80;;;;;;5066087;28;20036;-36
2022/06/21 09:44:40;;;;;;;2.08;0.60;;;18.00;95.70;;;;;;5066165;28;20305;-37
2022/06/21 09:47:15;;;;;;;;;;;18.10;95.60;;;;;;5066001;28;20039;-37
2022/06/21 09:50:04;;;;;;;2.30;0.95;;;18.20;95.30;;;;;;5066032;28;20014;-37
2022/06/21 09:52:52;;;;;;;1.15;0.70;;;18.30;95.20;;;;;;5065139;28;20029;-35
2022/06/21 09:55:31;;;;;;;2.42;0.70;;;18.40;95.10;;;;;;5063297;28;20029;-36
2022/06/21 09:58:13;;;;;;;0.60;0.50;;;18.40;94.90;;;;;;5064976;28;20048;-36
2022/06/21 10:00:51;;;;;;;1.73;0.75;;;18.50;94.90;;;;;;5066231;28;20040;-36
2022/06/21 10:03:38;;;;;;;1.75;0.80;;;18.60;94.70;;;;;;5063018;28;20016;-36
2022/06/21 10:06:27;;;;;;;3.20;0.90;;;18.60;94.60;;;;;;5066823;28;20038;-37
2022/06/21 10:09:12;;;;;;;1.30;0.77;;;18.70;94.60;;;;;;5064910;28;20046;-37
2022/06/21 10:11:50;;;;;;;1.08;0.68;;;18.80;94.50;;;;;;5064843;28;20024;-35
2022/06/21 10:14:40;;;;;;;4.03;0.90;;;18.90;94.50;;;;;;5064440;28;20078;-36
2022/06/21 10:17:35;;;;;;;1.83;1.05;;;19.10;94.50;;;;;;5065504;28;20033;-36
2022/06/21 10:20:38;;;;;;;2.33;1.35;;;19.20;94.30;;;;;;5065611;28;20067;-37
2022/06/21 10:23:10;;;;;;;2.70;1.10;;;19.40;94.10;;;;;;5064469;28;20029;-37
2022/06/21 10:26:14;;;;;;;1.48;0.90;;;19.50;93.90;;;;;;5065703;28;20459;-35
2022/06/21 10:29:06;;;;;;;2.28;1.10;;;19.70;93.80;;;;;;5062918;28;20094;-36
2022/06/21 10:31:52;;;;;;;2.03;0.83;;;19.90;93.50;;;;;;5065390;28;20035;-36
2022/06/21 10:34:38;;;;;;;1.13;0.82;;;20.00;93.00;;;;;;5065691;28;20275;-36
2022/06/21 10:37:26;;;;;;;1.02;0.63;;;20.10;92.60;;;;;;5062605;28;20025;-38
2022/06/21 10:39:54;;;;;;;1.63;0.70;;;20.20;92.10;;;;;;5065560;28;20044;-36
2022/06/21 10:42:47;;;;;;;1.60;0.70;;;20.20;91.90;;;;;;5064815;28;20025;-37
2022/06/21 10:45:39;;;;;;;1.35;0.60;;;20.30;91.80;;;;;;5055260;28;20036;-38
2022/06/21 10:48:39;;;;;;;1.73;0.67;;;20.30;91.60;;;;;;5065832;28;20125;-37
2022/06/21 10:51:11;;;;;;;2.05;0.95;;;20.40;91.40;;;;;;5064680;28;20036;-35
2022/06/21 10:53:59;;;;;;;1.35;0.70;;;20.40;90.70;;;;;;5064156;28;20116;-36
2022/06/21 11:02:56;;;;;;;3.22;0.80;;;20.40;89.60;;;;;;5047132;28;20389;-36
2022/06/21 11:06:03;;;;;;;0.88;0.60;;;20.40;89.30;;;;;;5061679;28;20035;-35
2022/06/21 11:08:56;;;;;;;1.85;0.75;;;20.40;89.10;;;;;;5065225;28;20149;-36
2022/06/21 11:11:26;;;;;;;1.42;0.65;;;20.40;88.90;;;;;;5057344;28;20035;-36
2022/06/21 11:14:10;;;;;;;1.73;0.60;;;20.40;89.20;;;;;;5066027;28;20033;-39
2022/06/21 11:16:35;;;;;;;1.42;0.77;;;20.40;89.30;;;;;;5065332;28;20380;-38
2022/06/21 11:19:21;;;;;;;2.35;0.65;;;20.50;89.70;;;;;;5064389;28;20515;-39
2022/06/21 11:22:00;;;;;;;0.73;0.50;;;20.60;89.50;;;;;;5064136;28;20060;-37
2022/06/21 11:24:45;;;;;;;0.98;0.60;;;20.60;89.70;;;;;;5062975;28;20028;-37
2022/06/21 11:27:43;;;;;;;1.65;0.60;;;20.70;89.90;;;;;;5065299;28;20077;-35
2022/06/21 11:30:20;;;;;;;0.43;0.40;;;20.90;89.60;;;;;;5065289;28;20024;-37
2022/06/21 11:33:06;;;;;;;0.70;0.50;;;21.10;88.90;;;;;;5063618;28;20527;-37
2022/06/21 11:35:37;;;;;;;1.17;0.60;;;21.30;88.50;;;;;;5064322;28;20396;-36
2022/06/21 11:38:32;;;;;;;1.65;0.80;;;21.40;87.60;;;;;;5065396;28;20479;-38
2022/06/21 11:41:09;;;;;;;1.63;0.75;;;21.50;87.50;;;;;;5064855;28;20044;-35
2022/06/21 11:43:58;;;;;;;0.93;0.60;;;21.50;87.50;;;;;;5064747;28;20013;-37
2022/06/21 11:46:35;;;;;;;1.05;0.57;;;21.60;87.50;;;;;;5066126;28;20083;-38
2022/06/21 11:49:31;;;;;;;1.42;0.60;;;21.60;87.50;;;;;;5069135;28;20039;-36
2022/06/21 11:52:28;;;;;;;0.65;0.50;;;21.60;87.50;;;;;;5065585;28;20082;-36
2022/06/21 11:55:31;;;;;;;1.15;0.60;;;21.60;87.00;;;;;;5068797;28;20027;-37
2022/06/21 11:58:21;;;;;;;1.83;0.75;;;21.50;86.90;;;;;;5061081;28;20059;-37
2022/06/21 12:01:11;;;;;;;1.80;0.50;;;21.50;87.00;;;;;;5065749;28;20104;-36
2022/06/21 12:03:39;;;;;;;3.08;0.80;;;21.40;86.50;;;;;;5068107;28;20036;-36
2022/06/21 12:06:34;;;;;;;1.38;0.55;;;21.40;86.30;;;;;;5068498;28;20029;-36
2022/06/21 12:09:15;;;;;;;1.88;0.52;;;21.40;86.20;;;;;;5042806;28;20041;-36
2022/06/21 12:11:56;;;;;;;1.38;0.80;;;21.40;86.50;;;;;;5062721;28;20025;-36
2022/06/21 12:14:36;;;;;;;0.90;0.50;;;21.40;86.70;;;;;;5067975;28;20059;-35
2022/06/21 12:17:45;;;;;;;1.15;0.40;;;21.40;86.70;;;;;;5068717;28;20024;-37
2022/06/21 12:20:17;;;;;;;1.13;0.50;;;21.50;86.50;;;;;;5019754;28;20079;-36
2022/06/21 12:22:51;;;;;;;0.75;0.45;;;21.50;86.30;;;;;;5067392;28;20471;-36
2022/06/21 12:25:19;;;;;;;0.95;0.60;;;21.60;86.30;;;;;;5067808;28;20032;-36
2022/06/21 12:27:45;;;;;;;0.82;0.63;;;21.60;86.20;;;;;;5066143;28;20078;-36
2022/06/21 12:30:17;;;;;;;1.42;0.90;;;21.70;85.40;;;;;;5066994;28;20415;-36
2022/06/21 12:32:43;;;;;;;2.67;2.00;;;21.80;84.90;;;;;;5066284;28;20028;-37
2022/06/21 12:35:17;;;;;;;1.33;1.00;;;21.90;84.90;;;;;;5067667;28;20506;-37
2022/06/21 12:37:48;;;;;;;1.35;1.00;;;22.10;85.10;;;;;;5067303;28;20055;-36
2022/06/21 12:40:33;;;;;;;1.67;1.10;;;22.20;85.10;;;;;;5067572;28;20029;-36
2022/06/21 12:43:15;;;;;;;1.48;0.95;;;22.30;84.80;;;;;;5063781;28;20032;-36
2022/06/21 12:46:06;;;;;;;1.77;1.23;;;22.40;84.70;;;;;;5048146;28;20380;-38
2022/06/21 12:49:06;;;;;;;2.00;1.30;;;22.50;84.50;;;;;;5066113;28;20787;-37
2022/06/21 12:52:00;;;;;;;1.10;0.82;;;22.60;84.40;;;;;;5033464;28;20504;-36
2022/06/21 12:54:51;;;;;;;2.08;0.90;;;22.70;84.10;;;;;;5050480;28;20490;-37
2022/06/21 12:57:35;;;;;;;1.02;0.70;;;22.80;83.70;;;;;;5066150;28;20451;-35
2022/06/21 13:00:35;;;;;;;2.25;0.90;;;23.00;83.40;;;;;;5067430;28;20103;-37
2022/06/21 13:03:40;;;;;;;0.82;0.50;;;23.10;82.10;;;;;;5066582;28;20062;-36
2022/06/21 13:06:41;;;;;;;0.90;0.57;;;23.20;81.70;;;;;;5047638;28;20029;-36
2022/06/21 13:09:34;;;;;;;0.75;0.70;;;23.20;81.70;;;;;;5065407;28;20029;-37
2022/06/21 13:12:14;;;;;;;1.10;0.60;;;23.20;81.20;;;;;;5066267;28;20025;-36
2022/06/21 13:15:09;;;;;;;1.08;0.57;;;23.20;81.10;;;;;;5063584;28;20055;-36
2022/06/21 13:18:00;;;;;;;0.90;0.50;;;23.20;80.80;;;;;;5054756;28;20051;-36
2022/06/21 13:20:58;;;;;;;0.95;0.50;;;23.10;80.60;;;;;;5056712;28;20036;-38
2022/06/21 13:23:48;;;;;;;1.08;0.40;;;23.00;79.70;;;;;;5066360;28;20061;-37
2022/06/21 13:26:26;;;;;;;0.45;0.40;;;23.00;79.30;;;;;;5066281;28;20075;-37
2022/06/21 13:29:24;;;;;;;0.60;0.50;;;22.90;79.70;;;;;;5067081;28;20399;-36
2022/06/21 13:31:55;;;;;;;1.77;0.50;;;23.00;79.80;;;;;;5067133;28;20059;-35
2022/06/21 13:34:32;;;;;;;1.17;0.60;;;23.00;80.00;;;;;;5065608;28;20067;-38
2022/06/21 13:37:07;;;;;;;1.65;0.65;;;23.10;80.20;;;;;;5065796;28;20385;-39
2022/06/21 13:39:53;;;;;;;1.48;0.70;;;23.20;79.80;;;;;;5065433;28;20151;-38
2022/06/21 13:42:47;;;;;;;2.00;0.50;;;23.30;79.70;;;;;;5066080;28;20391;-35
2022/06/21 13:45:51;;;;;;;1.15;0.47;;;23.30;79.40;;;;;;5008556;28;20137;-36
2022/06/21 13:48:25;;;;;;;0.75;0.50;;;23.40;79.00;;;;;;5032062;28;20040;-37
2022/06/21 13:51:26;;;;;;;1.77;0.60;;;23.50;79.10;;;;;;5066159;28;20028;-38
2022/06/21 13:54:10;;;;;;;0.70;0.47;;;23.70;78.40;;;;;;5032976;28;20498;-35
2022/06/21 13:57:05;;;;;;;1.25;0.80;;;23.80;78.20;;;;;;5055547;28;20032;-36
2022/06/21 13:59:39;;;;;;;2.40;0.98;;;23.90;78.30;;;;;;5065129;28;20343;-37
2022/06/21 14:02:31;;;;;;;1.20;0.90;;;24.00;78.30;;;;;;5065895;28;20028;-36
2022/06/21 14:05:31;;;;;;;1.35;0.98;;;24.10;78.10;;;;;;5066383;28;20127;-37
2022/06/21 14:08:21;;;;;;;1.65;0.75;;;24.10;77.60;;;;;;5064424;28;20028;-36